sensor_id;sensor_type;location;lat;lon;timestamp;pressure;altitude;pressure_sealevel;temperature;humidity
36092;BME280;22147;52.388;13.390;2022-12-29T00:01:04;100105.94;;;6.50;100.00
36092;BME280;22147;52.388;13.390;2022-12-29T00:03:32;100102.72;;;6.57;100.00
36092;BME280;22147;52.388;13.390;2022-12-29T00:06:01;100091.16;;;6.46;100.00
36092;BME280;22147;52.388;13.390;2022-12-29T00:08:29;100086.53;;;6.64;100.00
36092;BME280;22147;52.388;13.390;2022-12-29T00:11:15;100085.00;;;6.49;100.00
36092;BME280;22147;52.388;13.390;2022-12-29T00:13:46;100086.44;;;6.46;100.00
36092;BME280;22147;52.388;13.390;2022-12-29T00:16:36;100080.97;;;6.55;100.00
36092;BME280;22147;52.388;13.390;2022-12-29T00:19:06;100077.66;;;6.44;100.00
36092;BME280;22147;52.388;13.390;2022-12-29T00:21:54;100071.94;;;6.63;100.00
36092;BME280;22147;52.388;13.390;2022-12-29T00:24:44;100073.84;;;6.54;100.00
36092;BME280;22147;52.388;13.390;2022-12-29T00:27:32;100072.63;;;6.69;100.00
36092;BME280;22147;52.388;13.390;2022-12-29T00:30:23;100066.88;;;6.57;100.00
36092;BME280;22147;52.388;13.390;2022-12-29T00:33:18;100060.56;;;6.65;100.00
36092;BME280;22147;52.388;13.390;2022-12-29T00:36:36;100065.53;;;6.94;100.00
36092;BME280;22147;52.388;13.390;2022-12-29T00:39:18;100062.41;;;6.78;100.00
36092;BME280;22147;52.388;13.390;2022-12-29T00:42:09;100066.41;;;6.63;100.00
36092;BME280;22147;52.388;13.390;2022-12-29T00:44:59;100064.56;;;6.50;100.00
36092;BME280;22147;52.388;13.390;2022-12-29T00:47:29;100064.72;;;6.53;100.00
36092;BME280;22147;52.388;13.390;2022-12-29T00:49:59;100061.72;;;6.72;100.00
36092;BME280;22147;52.388;13.390;2022-12-29T00:52:29;100053.94;;;6.75;100.00
36092;BME280;22147;52.388;13.390;2022-12-29T00:54:59;100056.69;;;6.66;100.00
36092;BME280;22147;52.388;13.390;2022-12-29T00:57:29;100058.75;;;6.60;100.00
36092;BME280;22147;52.388;13.390;2022-12-29T00:59:58;100051.19;;;6.75;100.00
36092;BME280;22147;52.388;13.390;2022-12-29T01:02:26;100056.91;;;6.78;100.00
36092;BME280;22147;52.388;13.390;2022-12-29T01:04:55;100058.25;;;6.58;100.00
36092;BME280;22147;52.388;13.390;2022-12-29T01:07:23;100046.03;;;6.82;100.00
36092;BME280;22147;52.388;13.390;2022-12-29T01:09:51;100058.31;;;6.67;100.00
36092;BME280;22147;52.388;13.390;2022-12-29T01:12:40;100037.75;;;6.82;100.00
36092;BME280;22147;52.388;13.390;2022-12-29T01:15:14;100043.41;;;6.77;100.00
36092;BME280;22147;52.388;13.390;2022-12-29T01:17:42;100040.94;;;6.75;100.00
36092;BME280;22147;52.388;13.390;2022-12-29T01:20:11;100041.75;;;6.67;100.00
36092;BME280;22147;52.388;13.390;2022-12-29T01:22:39;100042.56;;;6.67;100.00
36092;BME280;22147;52.388;13.390;2022-12-29T01:25:07;100033.75;;;6.57;100.00
36092;BME280;22147;52.388;13.390;2022-12-29T01:27:35;100040.53;;;6.50;100.00
36092;BME280;22147;52.388;13.390;2022-12-29T01:30:04;100040.66;;;6.45;100.00
36092;BME280;22147;52.388;13.390;2022-12-29T01:32:35;100042.84;;;6.57;100.00
36092;BME280;22147;52.388;13.390;2022-12-29T01:35:06;100044.56;;;6.76;100.00
36092;BME280;22147;52.388;13.390;2022-12-29T01:37:36;100038.06;;;6.80;100.00
36092;BME280;22147;52.388;13.390;2022-12-29T01:40:06;100042.91;;;6.75;100.00
36092;BME280;22147;52.388;13.390;2022-12-29T01:42:36;100040.34;;;6.78;100.00
36092;BME280;22147;52.388;13.390;2022-12-29T01:45:13;100039.72;;;6.90;100.00
36092;BME280;22147;52.388;13.390;2022-12-29T01:48:04;100036.41;;;6.70;100.00
36092;BME280;22147;52.388;13.390;2022-12-29T01:50:50;100039.72;;;6.90;100.00
36092;BME280;22147;52.388;13.390;2022-12-29T01:53:31;100041.81;;;6.84;100.00
36092;BME280;22147;52.388;13.390;2022-12-29T01:56:11;100032.38;;;6.77;100.00
36092;BME280;22147;52.388;13.390;2022-12-29T01:58:49;100017.25;;;6.74;100.00
36092;BME280;22147;52.388;13.390;2022-12-29T02:01:25;100018.69;;;6.63;100.00
36092;BME280;22147;52.388;13.390;2022-12-29T02:03:54;100015.06;;;6.53;100.00
36092;BME280;22147;52.388;13.390;2022-12-29T02:06:29;100015.78;;;6.68;100.00
36092;BME280;22147;52.388;13.390;2022-12-29T02:09:01;100009.25;;;6.55;100.00
36092;BME280;22147;52.388;13.390;2022-12-29T02:11:30;100006.22;;;6.74;100.00
36092;BME280;22147;52.388;13.390;2022-12-29T02:14:00;100007.69;;;6.71;100.00
36092;BME280;22147;52.388;13.390;2022-12-29T02:16:52;100009.28;;;6.72;100.00
36092;BME280;22147;52.388;13.390;2022-12-29T02:27:29;99999.97;;;7.00;100.00
36092;BME280;22147;52.388;13.390;2022-12-29T02:35:51;100001.66;;;6.69;100.00
36092;BME280;22147;52.388;13.390;2022-12-29T02:45:25;99984.34;;;6.86;100.00
36092;BME280;22147;52.388;13.390;2022-12-29T02:48:41;99979.63;;;6.87;100.00
36092;BME280;22147;52.388;13.390;2022-12-29T02:51:34;99983.97;;;6.79;100.00
36092;BME280;22147;52.388;13.390;2022-12-29T02:54:10;99989.38;;;6.84;100.00
36092;BME280;22147;52.388;13.390;2022-12-29T02:56:58;99990.00;;;6.90;100.00
36092;BME280;22147;52.388;13.390;2022-12-29T02:59:29;99998.78;;;6.83;100.00
36092;BME280;22147;52.388;13.390;2022-12-29T03:02:44;99983.38;;;7.00;100.00
36092;BME280;22147;52.388;13.390;2022-12-29T03:06:06;99982.41;;;7.04;100.00
36092;BME280;22147;52.388;13.390;2022-12-29T03:09:14;99977.25;;;7.20;100.00
36092;BME280;22147;52.388;13.390;2022-12-29T03:15:34;99954.50;;;7.32;100.00
36092;BME280;22147;52.388;13.390;2022-12-29T03:24:13;99944.13;;;7.29;100.00
36092;BME280;22147;52.388;13.390;2022-12-29T03:26:51;99936.81;;;7.33;100.00
36092;BME280;22147;52.388;13.390;2022-12-29T03:29:29;99949.63;;;7.38;100.00
36092;BME280;22147;52.388;13.390;2022-12-29T03:32:05;99941.53;;;7.32;100.00
36092;BME280;22147;52.388;13.390;2022-12-29T03:34:39;99942.97;;;7.30;100.00
36092;BME280;22147;52.388;13.390;2022-12-29T03:37:22;99933.06;;;7.46;100.00
36092;BME280;22147;52.388;13.390;2022-12-29T03:39:56;99938.09;;;7.44;100.00
36092;BME280;22147;52.388;13.390;2022-12-29T03:42:32;99937.25;;;7.61;100.00
36092;BME280;22147;52.388;13.390;2022-12-29T03:45:07;99934.81;;;7.51;100.00
36092;BME280;22147;52.388;13.390;2022-12-29T03:47:38;99937.09;;;7.58;100.00
36092;BME280;22147;52.388;13.390;2022-12-29T03:50:12;99936.97;;;7.45;100.00
36092;BME280;22147;52.388;13.390;2022-12-29T03:52:43;99937.78;;;7.37;100.00
36092;BME280;22147;52.388;13.390;2022-12-29T03:55:13;99940.22;;;7.47;100.00
36092;BME280;22147;52.388;13.390;2022-12-29T03:57:43;99942.50;;;7.37;100.00
36092;BME280;22147;52.388;13.390;2022-12-29T04:00:13;99946.56;;;7.30;100.00
36092;BME280;22147;52.388;13.390;2022-12-29T04:02:44;99955.31;;;7.41;100.00
36092;BME280;22147;52.388;13.390;2022-12-29T04:05:14;99955.31;;;7.41;100.00
36092;BME280;22147;52.388;13.390;2022-12-29T04:07:44;99947.84;;;7.50;100.00
36092;BME280;22147;52.388;13.390;2022-12-29T04:10:14;99944.44;;;7.62;100.00
36092;BME280;22147;52.388;13.390;2022-12-29T04:12:45;99953.66;;;7.58;100.00
36092;BME280;22147;52.388;13.390;2022-12-29T04:15:16;99950.94;;;7.66;100.00
36092;BME280;22147;52.388;13.390;2022-12-29T04:17:46;99946.22;;;7.58;100.00
36092;BME280;22147;52.388;13.390;2022-12-29T04:20:15;99938.06;;;7.79;100.00
36092;BME280;22147;52.388;13.390;2022-12-29T04:23:06;99945.50;;;7.79;100.00
36092;BME280;22147;52.388;13.390;2022-12-29T04:25:35;99946.53;;;7.65;100.00
36092;BME280;22147;52.388;13.390;2022-12-29T04:28:04;99946.03;;;7.63;100.00
36092;BME280;22147;52.388;13.390;2022-12-29T04:30:32;99934.81;;;7.60;100.00
36092;BME280;22147;52.388;13.390;2022-12-29T04:33:01;99930.75;;;7.66;100.00
36092;BME280;22147;52.388;13.390;2022-12-29T04:35:29;99935.78;;;7.64;100.00
36092;BME280;22147;52.388;13.390;2022-12-29T04:37:58;99930.44;;;7.59;100.00
36092;BME280;22147;52.388;13.390;2022-12-29T04:40:26;99930.75;;;7.57;100.00
36092;BME280;22147;52.388;13.390;2022-12-29T04:42:55;99923.28;;;7.58;100.00
36092;BME280;22147;52.388;13.390;2022-12-29T04:45:23;99931.56;;;7.58;100.00
36092;BME280;22147;52.388;13.390;2022-12-29T04:47:51;99925.06;;;7.71;100.00
36092;BME280;22147;52.388;13.390;2022-12-29T04:50:20;99930.75;;;7.57;100.00
36092;BME280;22147;52.388;13.390;2022-12-29T04:52:48;99925.69;;;7.68;100.00
36092;BME280;22147;52.388;13.390;2022-12-29T04:55:17;99931.22;;;7.77;100.00
36092;BME280;22147;52.388;13.390;2022-12-29T04:57:45;99913.84;;;7.67;100.00
36092;BME280;22147;52.388;13.390;2022-12-29T05:00:14;99908.28;;;7.76;100.00
36092;BME280;22147;52.388;13.390;2022-12-29T05:02:42;99921.97;;;7.81;100.00
36092;BME280;22147;52.388;13.390;2022-12-29T05:05:11;99924.22;;;7.79;100.00
36092;BME280;22147;52.388;13.390;2022-12-29T05:07:39;99924.06;;;7.75;100.00
36092;BME280;22147;52.388;13.390;2022-12-29T05:10:08;99922.44;;;7.74;100.00
36092;BME280;22147;52.388;13.390;2022-12-29T05:12:37;99926.16;;;7.79;100.00
36092;BME280;22147;52.388;13.390;2022-12-29T05:15:10;99914.97;;;7.75;100.00
36092;BME280;22147;52.388;13.390;2022-12-29T05:17:40;99903.06;;;7.92;100.00
36092;BME280;22147;52.388;13.390;2022-12-29T05:20:11;99894.25;;;7.99;100.00
36092;BME280;22147;52.388;13.390;2022-12-29T05:22:41;99894.94;;;8.25;100.00
36092;BME280;22147;52.388;13.390;2022-12-29T05:25:11;99899.41;;;8.09;100.00
36092;BME280;22147;52.388;13.390;2022-12-29T05:27:41;99880.09;;;7.91;100.00
36092;BME280;22147;52.388;13.390;2022-12-29T05:30:12;99882.88;;;7.91;100.00
36092;BME280;22147;52.388;13.390;2022-12-29T05:32:42;99880.53;;;8.11;100.00
36092;BME280;22147;52.388;13.390;2022-12-29T05:35:13;99881.34;;;8.11;100.00
36092;BME280;22147;52.388;13.390;2022-12-29T05:37:43;99866.47;;;8.25;100.00
36092;BME280;22147;52.388;13.390;2022-12-29T05:40:13;99876.34;;;8.43;100.00
36092;BME280;22147;52.388;13.390;2022-12-29T05:42:43;99860.41;;;8.31;100.00
36092;BME280;22147;52.388;13.390;2022-12-29T05:45:13;99875.19;;;8.35;100.00
36092;BME280;22147;52.388;13.390;2022-12-29T05:47:43;99868.22;;;8.29;100.00
36092;BME280;22147;52.388;13.390;2022-12-29T05:50:13;99866.28;;;8.30;100.00
36092;BME280;22147;52.388;13.390;2022-12-29T05:52:44;99879.72;;;8.40;100.00
36092;BME280;22147;52.388;13.390;2022-12-29T05:55:14;99874.69;;;8.42;100.00
36092;BME280;22147;52.388;13.390;2022-12-29T05:57:45;99866.78;;;8.32;100.00
36092;BME280;22147;52.388;13.390;2022-12-29T06:00:15;99873.59;;;8.34;100.00
36092;BME280;22147;52.388;13.390;2022-12-29T06:02:45;99863.47;;;8.39;100.00
36092;BME280;22147;52.388;13.390;2022-12-29T06:05:16;99858.53;;;8.53;100.00
36092;BME280;22147;52.388;13.390;2022-12-29T06:07:46;99864.44;;;8.72;100.00
36092;BME280;22147;52.388;13.390;2022-12-29T06:10:16;99863.81;;;8.67;100.00
36092;BME280;22147;52.388;13.390;2022-12-29T06:12:47;99872.50;;;8.56;100.00
36092;BME280;22147;52.388;13.390;2022-12-29T06:15:16;99866.56;;;8.37;100.00
36092;BME280;22147;52.388;13.390;2022-12-29T06:17:47;99866.56;;;8.37;100.00
36092;BME280;22147;52.388;13.390;2022-12-29T06:20:15;99856.31;;;8.38;100.00
36092;BME280;22147;52.388;13.390;2022-12-29T06:22:44;99854.34;;;8.38;100.00
36092;BME280;22147;52.388;13.390;2022-12-29T06:25:12;99859.44;;;8.36;100.00
36092;BME280;22147;52.388;13.390;2022-12-29T06:27:41;99865.75;;;8.45;100.00
36092;BME280;22147;52.388;13.390;2022-12-29T06:30:10;99869.00;;;8.39;100.00
36092;BME280;22147;52.388;13.390;2022-12-29T06:32:41;99857.78;;;8.44;100.00
36092;BME280;22147;52.388;13.390;2022-12-29T06:35:12;99856.88;;;8.22;100.00
36092;BME280;22147;52.388;13.390;2022-12-29T06:37:42;99866.84;;;8.14;100.00
36092;BME280;22147;52.388;13.390;2022-12-29T06:40:13;99864.06;;;8.14;100.00
36092;BME280;22147;52.388;13.390;2022-12-29T06:42:43;99858.91;;;8.13;100.00
36092;BME280;22147;52.388;13.390;2022-12-29T06:45:11;99859.22;;;8.11;100.00
36092;BME280;22147;52.388;13.390;2022-12-29T06:47:39;99870.63;;;8.40;100.00
36092;BME280;22147;52.388;13.390;2022-12-29T06:50:08;99868.97;;;8.18;100.00
36092;BME280;22147;52.388;13.390;2022-12-29T06:52:36;99866.50;;;8.16;100.00
36092;BME280;22147;52.388;13.390;2022-12-29T06:55:05;99875.41;;;8.30;100.00
36092;BME280;22147;52.388;13.390;2022-12-29T06:57:33;99871.84;;;8.21;100.00
36092;BME280;22147;52.388;13.390;2022-12-29T07:00:04;99886.69;;;8.16;100.00
36092;BME280;22147;52.388;13.390;2022-12-29T07:02:33;99883.53;;;8.27;100.00
36092;BME280;22147;52.388;13.390;2022-12-29T07:05:01;99885.19;;;8.28;100.00
36092;BME280;22147;52.388;13.390;2022-12-29T07:07:30;99890.25;;;8.26;100.00
36092;BME280;22147;52.388;13.390;2022-12-29T07:09:58;99878.25;;;8.13;100.00
36092;BME280;22147;52.388;13.390;2022-12-29T07:12:27;99889.75;;;8.24;100.00
36092;BME280;22147;52.388;13.390;2022-12-29T07:14:55;99892.88;;;8.52;100.00
36092;BME280;22147;52.388;13.390;2022-12-29T07:17:23;99894.53;;;8.53;100.00
36092;BME280;22147;52.388;13.390;2022-12-29T07:19:52;99894.16;;;8.54;100.00
36092;BME280;22147;52.388;13.390;2022-12-29T07:22:20;99890.31;;;8.47;100.00
36092;BME280;22147;52.388;13.390;2022-12-29T07:24:49;99894.53;;;8.44;100.00
36092;BME280;22147;52.388;13.390;2022-12-29T07:27:17;99903.53;;;8.41;100.00
36092;BME280;22147;52.388;13.390;2022-12-29T07:29:46;99890.13;;;8.52;100.00
36092;BME280;22147;52.388;13.390;2022-12-29T07:32:14;99892.88;;;8.52;100.00
36092;BME280;22147;52.388;13.390;2022-12-29T07:34:42;99904.00;;;8.73;100.00
36092;BME280;22147;52.388;13.390;2022-12-29T07:37:15;99899.66;;;8.63;100.00
36092;BME280;22147;52.388;13.390;2022-12-29T07:39:46;99893.91;;;8.39;100.00
36092;BME280;22147;52.388;13.390;2022-12-29T07:42:16;99891.44;;;8.46;100.00
36092;BME280;22147;52.388;13.390;2022-12-29T07:44:47;99890.41;;;8.59;100.00
36092;BME280;22147;52.388;13.390;2022-12-29T07:47:17;99884.53;;;8.61;100.00
36092;BME280;22147;52.388;13.390;2022-12-29T07:49:47;99889.16;;;8.48;100.00
36092;BME280;22147;52.388;13.390;2022-12-29T07:52:17;99896.66;;;8.47;100.00
36092;BME280;22147;52.388;13.390;2022-12-29T07:54:47;99908.38;;;8.53;100.00
36092;BME280;22147;52.388;13.390;2022-12-29T07:57:17;99895.56;;;8.31;100.00
36092;BME280;22147;52.388;13.390;2022-12-29T07:59:47;99898.91;;;8.54;100.00
36092;BME280;22147;52.388;13.390;2022-12-29T08:02:17;99894.78;;;8.60;100.00
36092;BME280;22147;52.388;13.390;2022-12-29T08:04:47;99894.41;;;8.70;100.00
36092;BME280;22147;52.388;13.390;2022-12-29T08:07:17;99882.91;;;8.60;100.00
36092;BME280;22147;52.388;13.390;2022-12-29T08:09:47;99888.13;;;8.82;100.00
36092;BME280;22147;52.388;13.390;2022-12-29T08:12:18;99887.59;;;8.89;100.00
36092;BME280;22147;52.388;13.390;2022-12-29T08:14:50;99889.63;;;9.01;100.00
36092;BME280;22147;52.388;13.390;2022-12-29T08:17:20;99881.31;;;9.01;100.00
36092;BME280;22147;52.388;13.390;2022-12-29T08:19:51;99864.84;;;9.04;100.00
36092;BME280;22147;52.388;13.390;2022-12-29T08:22:21;99865.50;;;9.22;100.00
36092;BME280;22147;52.388;13.390;2022-12-29T08:24:51;99888.94;;;9.04;100.00
36092;BME280;22147;52.388;13.390;2022-12-29T08:27:21;99887.53;;;8.98;100.00
36092;BME280;22147;52.388;13.390;2022-12-29T08:29:52;99878.06;;;8.99;100.00
36092;BME280;22147;52.388;13.390;2022-12-29T08:32:22;99881.31;;;9.01;100.00
36092;BME280;22147;52.388;13.390;2022-12-29T08:34:52;99879.72;;;8.79;100.00
36092;BME280;22147;52.388;13.390;2022-12-29T08:37:22;99872.75;;;8.72;100.00
36092;BME280;22147;52.388;13.390;2022-12-29T08:39:57;99874.50;;;8.77;100.00
36092;BME280;22147;52.388;13.390;2022-12-29T08:42:25;99872.19;;;8.79;100.00
36092;BME280;22147;52.388;13.390;2022-12-29T08:45:01;99868.06;;;8.64;100.00
36092;BME280;22147;52.388;13.390;2022-12-29T08:47:31;99873.06;;;8.71;100.00
36092;BME280;22147;52.388;13.390;2022-12-29T08:50:01;99882.41;;;8.87;100.00
36092;BME280;22147;52.388;13.390;2022-12-29T08:52:31;99884.50;;;8.90;100.00
36092;BME280;22147;52.388;13.390;2022-12-29T08:55:00;99873.47;;;9.03;100.00
36092;BME280;22147;52.388;13.390;2022-12-29T08:57:30;99875.78;;;9.01;100.00
36092;BME280;22147;52.388;13.390;2022-12-29T09:00:01;99866.53;;;8.96;100.00
36092;BME280;22147;52.388;13.390;2022-12-29T09:02:30;99863.28;;;8.94;100.00
36092;BME280;22147;52.388;13.390;2022-12-29T09:05:01;99871.13;;;8.92;100.00
36092;BME280;22147;52.388;13.390;2022-12-29T09:07:31;99873.81;;;9.22;100.00
36092;BME280;22147;52.388;13.390;2022-12-29T09:10:01;99870.28;;;9.34;100.00
36092;BME280;22147;52.388;13.390;2022-12-29T09:12:30;99875.16;;;9.16;100.00
36092;BME280;22147;52.388;13.390;2022-12-29T09:15:05;99880.38;;;9.17;100.00
36092;BME280;22147;52.388;13.390;2022-12-29T09:17:35;99888.41;;;9.31;100.00
36092;BME280;22147;52.388;13.390;2022-12-29T09:20:17;99882.00;;;9.52;100.00
36092;BME280;22147;52.388;13.390;2022-12-29T09:22:48;99877.72;;;9.42;100.00
36092;BME280;22147;52.388;13.390;2022-12-29T09:25:19;99868.31;;;9.34;100.00
36092;BME280;22147;52.388;13.390;2022-12-29T09:27:49;99885.63;;;9.31;100.00
36092;BME280;22147;52.388;13.390;2022-12-29T09:30:23;99883.53;;;9.28;100.00
36092;BME280;22147;52.388;13.390;2022-12-29T09:32:54;99872.16;;;9.42;100.00
36092;BME280;22147;52.388;13.390;2022-12-29T09:35:22;99873.38;;;9.66;100.00
36092;BME280;22147;52.388;13.390;2022-12-29T09:37:53;99865.75;;;9.63;100.00
36092;BME280;22147;52.388;13.390;2022-12-29T09:40:30;99856.78;;;9.90;100.00
36092;BME280;22147;52.388;13.390;2022-12-29T09:51:38;99842.28;;;10.30;100.00
36092;BME280;22147;52.388;13.390;2022-12-29T10:00:20;99854.94;;;10.80;100.00
36092;BME280;22147;52.388;13.390;2022-12-29T10:03:10;99835.44;;;11.05;100.00
36092;BME280;22147;52.388;13.390;2022-12-29T10:06:09;99846.22;;;10.94;100.00
36092;BME280;22147;52.388;13.390;2022-12-29T10:12:26;99833.78;;;11.04;100.00
36092;BME280;22147;52.388;13.390;2022-12-29T10:25:23;99831.84;;;11.33;100.00
36092;BME280;22147;52.388;13.390;2022-12-29T10:28:58;99837.25;;;11.41;100.00
36092;BME280;22147;52.388;13.390;2022-12-29T10:32:09;99841.28;;;11.44;100.00
36092;BME280;22147;52.388;13.390;2022-12-29T10:34:46;99841.44;;;11.51;100.00
36092;BME280;22147;52.388;13.390;2022-12-29T10:37:49;99839.78;;;11.78;100.00
36092;BME280;22147;52.388;13.390;2022-12-29T10:43:54;99836.72;;;11.68;100.00
36092;BME280;22147;52.388;13.390;2022-12-29T10:46:36;99826.78;;;11.82;100.00
36092;BME280;22147;52.388;13.390;2022-12-29T10:49:17;99833.94;;;11.68;100.00
36092;BME280;22147;52.388;13.390;2022-12-29T10:51:56;99834.84;;;11.72;100.00
36092;BME280;22147;52.388;13.390;2022-12-29T10:54:53;99834.53;;;11.89;100.00
36092;BME280;22147;52.388;13.390;2022-12-29T10:57:35;99848.59;;;11.65;100.00
36092;BME280;22147;52.388;13.390;2022-12-29T11:00:16;99826.50;;;11.56;100.00
36092;BME280;22147;52.388;13.390;2022-12-29T11:03:29;99841.84;;;11.50;100.00
36092;BME280;22147;52.388;13.390;2022-12-29T11:06:29;99840.19;;;11.49;100.00
36092;BME280;22147;52.388;13.390;2022-12-29T11:09:18;99851.53;;;11.28;100.00
36092;BME280;22147;52.388;13.390;2022-12-29T11:12:27;99848.69;;;11.24;100.00
36092;BME280;22147;52.388;13.390;2022-12-29T11:20:36;99847.91;;;11.11;100.00
36092;BME280;22147;52.388;13.390;2022-12-29T11:26:27;99850.34;;;10.60;100.00
36092;BME280;22147;52.388;13.390;2022-12-29T11:31:53;99863.44;;;10.35;100.00
36092;BME280;22147;52.388;13.390;2022-12-29T11:34:32;99864.44;;;10.06;100.00
36092;BME280;22147;52.388;13.390;2022-12-29T11:37:25;99868.38;;;10.05;100.00
36092;BME280;22147;52.388;13.390;2022-12-29T11:40:16;99865.69;;;9.84;100.00
36092;BME280;22147;52.388;13.390;2022-12-29T11:43:01;99869.47;;;9.79;100.00
36092;BME280;22147;52.388;13.390;2022-12-29T11:45:35;99864.28;;;9.65;100.00
36092;BME280;22147;52.388;13.390;2022-12-29T11:48:17;99877.72;;;9.42;100.00
36092;BME280;22147;52.388;13.390;2022-12-29T11:50:56;99866.97;;;9.41;100.00
36092;BME280;22147;52.388;13.390;2022-12-29T11:53:45;99865.31;;;9.27;100.00
36092;BME280;22147;52.388;13.390;2022-12-29T11:56:30;99866.28;;;9.23;100.00
36092;BME280;22147;52.388;13.390;2022-12-29T12:01:59;99863.50;;;8.89;100.00
36092;BME280;22147;52.388;13.390;2022-12-29T12:04:37;99869.38;;;8.88;100.00
36092;BME280;22147;52.388;13.390;2022-12-29T12:07:11;99883.63;;;8.99;100.00
36092;BME280;22147;52.388;13.390;2022-12-29T12:10:34;99894.75;;;8.90;100.00
36092;BME280;22147;52.388;13.390;2022-12-29T12:13:40;99905.22;;;8.84;100.00
36092;BME280;22147;52.388;13.390;2022-12-29T12:16:37;99892.06;;;8.81;100.00
36092;BME280;22147;52.388;13.390;2022-12-29T12:22:34;99884.34;;;8.66;100.00
36092;BME280;22147;52.388;13.390;2022-12-29T12:25:19;99872.81;;;8.64;100.00
36092;BME280;22147;52.388;13.390;2022-12-29T12:28:02;99877.63;;;8.46;100.00
36092;BME280;22147;52.388;13.390;2022-12-29T12:30:50;99871.44;;;8.40;100.00
36092;BME280;22147;52.388;13.390;2022-12-29T12:33:37;99866.56;;;8.37;100.00
36092;BME280;22147;52.388;13.390;2022-12-29T12:46:08;99857.53;;;8.28;100.00
36092;BME280;22147;52.388;13.390;2022-12-29T13:07:10;99848.94;;;8.50;100.00
36092;BME280;22147;52.388;13.390;2022-12-29T13:20:46;99871.50;;;8.61;100.00
36092;BME280;22147;52.388;13.390;2022-12-29T13:23:48;99865.44;;;8.68;100.00
36092;BME280;22147;52.388;13.390;2022-12-29T13:38:01;99861.56;;;8.30;100.00
36092;BME280;22147;52.388;13.390;2022-12-29T13:40:47;99859.44;;;8.36;100.00
36092;BME280;22147;52.388;13.390;2022-12-29T13:43:24;99863.66;;;8.33;100.00
36092;BME280;22147;52.388;13.390;2022-12-29T13:46:23;99857.16;;;8.29;100.00
36092;BME280;22147;52.388;13.390;2022-12-29T13:49:10;99868.31;;;8.12;100.00
36092;BME280;22147;52.388;13.390;2022-12-29T13:51:55;99869.97;;;8.04;100.00
36092;BME280;22147;52.388;13.390;2022-12-29T13:55:16;99874.66;;;8.12;100.00
36092;BME280;22147;52.388;13.390;2022-12-29T14:00:58;99866.66;;;8.20;100.00
36092;BME280;22147;52.388;13.390;2022-12-29T14:03:51;99872.91;;;8.08;100.00
36092;BME280;22147;52.388;13.390;2022-12-29T14:06:33;99884.66;;;8.34;100.00
36092;BME280;22147;52.388;13.390;2022-12-29T14:09:41;99883.25;;;8.20;100.00
36092;BME280;22147;52.388;13.390;2022-12-29T14:17:41;99884.72;;;8.26;100.00
36092;BME280;22147;52.388;13.390;2022-12-29T14:20:22;99885.66;;;8.30;100.00
36092;BME280;22147;52.388;13.390;2022-12-29T14:23:27;99886.59;;;8.43;100.00
36092;BME280;22147;52.388;13.390;2022-12-29T14:28:45;99888.38;;;8.47;100.00
36092;BME280;22147;52.388;13.390;2022-12-29T14:37:02;99895.44;;;8.57;100.00
36092;BME280;22147;52.388;13.390;2022-12-29T14:39:43;99902.03;;;8.44;100.00
36092;BME280;22147;52.388;13.390;2022-12-29T14:42:20;99904.34;;;8.33;100.00
36092;BME280;22147;52.388;13.390;2022-12-29T14:47:58;99916.06;;;8.39;100.00
36092;BME280;22147;52.388;13.390;2022-12-29T14:57:56;99927.97;;;8.30;100.00
36092;BME280;22147;52.388;13.390;2022-12-29T15:00:36;99937.09;;;8.22;100.00
36092;BME280;22147;52.388;13.390;2022-12-29T15:03:19;99935.94;;;8.23;100.00
36092;BME280;22147;52.388;13.390;2022-12-29T15:05:57;99923.63;;;8.12;100.00
36092;BME280;22147;52.388;13.390;2022-12-29T15:08:51;99919.75;;;8.04;100.00
36092;BME280;22147;52.388;13.390;2022-12-29T15:11:47;99930.00;;;8.04;100.00
36092;BME280;22147;52.388;13.390;2022-12-29T15:14:35;99933.91;;;8.11;100.00
36092;BME280;22147;52.388;13.390;2022-12-29T15:17:33;99949.56;;;7.99;100.00
36092;BME280;22147;52.388;13.390;2022-12-29T15:20:26;99948.03;;;8.10;100.00
36092;BME280;22147;52.388;13.390;2022-12-29T15:23:17;99962.53;;;8.15;100.00
36092;BME280;22147;52.388;13.390;2022-12-29T15:25:59;99966.84;;;8.25;100.00
36092;BME280;22147;52.388;13.390;2022-12-29T15:28:45;99967.25;;;8.15;100.00
36092;BME280;22147;52.388;13.390;2022-12-29T15:31:24;99970.03;;;7.98;100.00
36092;BME280;22147;52.388;13.390;2022-12-29T15:34:11;99974.47;;;7.81;100.00
36092;BME280;22147;52.388;13.390;2022-12-29T15:36:42;99974.16;;;7.65;100.00
36092;BME280;22147;52.388;13.390;2022-12-29T15:44:49;99969.94;;;7.68;100.00
36092;BME280;22147;52.388;13.390;2022-12-29T15:47:33;99980.81;;;7.47;100.00
36092;BME280;22147;52.388;13.390;2022-12-29T15:50:22;99976.28;;;7.25;100.00
36092;BME280;22147;52.388;13.390;2022-12-29T15:52:58;99982.09;;;7.06;100.00
36092;BME280;22147;52.388;13.390;2022-12-29T15:55:39;99989.72;;;7.00;100.00
36092;BME280;22147;52.388;13.390;2022-12-29T15:58:27;99994.41;;;6.91;100.00
36092;BME280;22147;52.388;13.390;2022-12-29T16:01:01;99991.78;;;6.77;100.00
36092;BME280;22147;52.388;13.390;2022-12-29T16:03:36;99997.13;;;6.73;100.00
36092;BME280;22147;52.388;13.390;2022-12-29T16:06:35;100009.34;;;6.90;100.00
36092;BME280;22147;52.388;13.390;2022-12-29T16:09:27;100009.38;;;6.99;100.00
36092;BME280;22147;52.388;13.390;2022-12-29T16:12:21;100004.19;;;7.06;100.00
36092;BME280;22147;52.388;13.390;2022-12-29T16:15:00;100011.53;;;7.28;100.00
36092;BME280;22147;52.388;13.390;2022-12-29T16:17:51;100015.44;;;7.27;100.00
36092;BME280;22147;52.388;13.390;2022-12-29T16:20:34;100023.41;;;7.20;100.00
36092;BME280;22147;52.388;13.390;2022-12-29T16:23:25;100024.69;;;7.22;100.00